Time;durP1;ratioP1;P1;durP2;ratioP2;P2;SDS_P1;SDS_P2;PMS_P1;PMS_P2;Temp;Humidity;BMP_temperature;BMP_pressure;BME280_temperature;BME280_humidity;BME280_pressure;Samples;Min_cycle;Max_cycle;Signal;HPM_P1;HPM_P2
2022/11/10 00:00:21;;;;;;;55.00;31.00;;;;;;;3.68;91.08;98953.12;2212084;81;20956;-80
2022/11/10 00:03:22;;;;;;;56.10;30.50;;;;;;;3.68;91.04;98954.42;2212019;81;20933;-80
2022/11/10 00:06:22;;;;;;;52.03;29.80;;;;;;;3.69;91.23;98962.64;2211822;81;20933;-80
2022/11/10 00:09:22;;;;;;;44.67;28.20;;;;;;;3.72;91.38;98964.05;2211894;81;21004;-80
2022/11/10 00:12:23;;;;;;;54.53;31.90;;;;;;;3.78;91.53;98961.72;2212078;81;20944;-80
2022/11/10 00:18:42;;;;;;;68.30;33.27;;;;;;;3.81;91.00;98961.84;2212550;81;20953;-81
2022/11/10 00:21:43;;;;;;;172.97;40.20;;;;;;;3.82;91.04;98957.55;2211944;81;21356;-80
2022/11/10 00:24:44;;;;;;;114.03;37.00;;;;;;;3.84;91.19;98963.66;2212301;81;21379;-80
2022/11/10 00:27:43;;;;;;;67.80;33.77;;;;;;;3.90;91.63;98959.16;2212567;81;20904;-81
2022/11/10 00:30:44;;;;;;;80.57;35.20;;;;;;;3.94;91.46;98959.75;2212201;81;20953;-80
2022/11/10 00:33:44;;;;;;;66.50;35.80;;;;;;;3.98;91.42;98969.38;2211987;81;20897;-80
2022/11/10 00:36:45;;;;;;;65.20;35.27;;;;;;;4.02;91.59;98966.09;2211903;81;20976;-80
2022/11/10 00:39:45;;;;;;;69.20;34.50;;;;;;;4.09;92.12;98971.97;2211742;81;20984;-80
2022/11/10 00:42:46;;;;;;;58.00;31.83;;;;;;;4.14;91.38;98982.07;2212167;81;20929;-80
2022/11/10 00:45:46;;;;;;;54.47;31.80;;;;;;;4.11;91.42;98972.91;2212519;81;20928;-80
2022/11/10 00:48:47;;;;;;;59.60;33.33;;;;;;;4.12;91.58;98973.38;2212393;81;20924;-81
2022/11/10 00:51:47;;;;;;;56.40;34.10;;;;;;;4.12;91.23;98978.55;2212588;81;21376;-81
2022/11/10 00:54:47;;;;;;;61.47;33.43;;;;;;;4.12;91.13;98979.84;2212287;81;20964;-80
2022/11/10 00:57:48;;;;;;;67.70;34.83;;;;;;;4.12;90.92;98986.30;2212975;81;20964;-80
2022/11/10 01:00:52;;;;;;;327.70;46.30;;;;;;;4.12;90.80;98983.30;2189531;81;20944;-80
2022/11/10 01:03:53;;;;;;;56.50;31.13;;;;;;;4.10;90.86;98973.73;2191062;81;20941;-80
2022/11/10 01:06:53;;;;;;;59.20;31.03;;;;;;;4.07;90.71;98975.78;2212410;81;20936;-80
2022/11/10 01:09:54;;;;;;;55.03;31.47;;;;;;;4.01;90.42;98976.84;2220508;80;21403;-80
2022/11/10 01:12:54;;;;;;;53.47;30.90;;;;;;;3.96;89.96;98977.47;2223375;80;20928;-80
2022/11/10 01:15:54;;;;;;;54.37;30.47;;;;;;;3.95;90.40;98974.42;2223178;80;20948;-81
2022/11/10 01:18:55;;;;;;;72.97;33.33;;;;;;;3.90;90.22;98978.11;2222971;80;20932;-80
2022/11/10 01:21:55;;;;;;;59.07;31.93;;;;;;;3.91;90.95;98990.61;2222993;80;21298;-80
2022/11/10 01:24:55;;;;;;;54.80;31.73;;;;;;;3.92;91.19;98984.22;2223205;80;20917;-80
2022/11/10 01:27:56;;;;;;;121.47;36.63;;;;;;;3.95;91.15;98986.05;2223480;80;20987;-80
2022/11/10 01:30:56;;;;;;;62.60;31.13;;;;;;;3.93;91.06;98982.52;2223495;80;20940;-80
2022/11/10 01:33:57;;;;;;;50.83;30.30;;;;;;;3.93;91.01;98987.69;2223440;80;20939;-81
2022/11/10 01:36:57;;;;;;;45.87;27.57;;;;;;;3.92;90.59;98996.25;2223442;80;20971;-80
2022/11/10 01:39:58;;;;;;;45.60;28.93;;;;;;;3.89;90.51;98999.59;2223356;80;21062;-81
2022/11/10 01:42:58;;;;;;;46.37;28.30;;;;;;;3.88;90.66;98991.78;2223841;80;21007;-80
2022/11/10 01:45:58;;;;;;;58.40;29.93;;;;;;;3.86;90.29;98977.92;2223471;80;20952;-81
2022/11/10 01:48:59;;;;;;;68.30;30.97;;;;;;;3.79;90.00;98989.30;2223474;80;20940;-80
2022/11/10 01:51:59;;;;;;;75.60;28.93;;;;;;;3.76;90.25;98987.00;2223094;80;20928;-80
2022/11/10 01:55:00;;;;;;;46.50;27.93;;;;;;;3.78;90.39;98991.82;2223316;80;20995;-82
2022/11/10 01:58:00;;;;;;;43.80;27.37;;;;;;;3.71;89.61;98996.26;2223448;80;20948;-80
2022/11/10 02:01:00;;;;;;;51.03;27.97;;;;;;;3.71;89.61;98996.26;2223128;80;20917;-82
2022/11/10 02:04:01;;;;;;;68.40;29.83;;;;;;;3.68;89.98;99007.34;2222402;80;20936;-82
2022/11/10 02:07:01;;;;;;;48.60;27.10;;;;;;;3.68;90.17;99003.88;2222205;80;20900;-81
2022/11/10 02:10:02;;;;;;;47.37;29.63;;;;;;;3.67;90.42;99008.16;2221863;80;20988;-81
2022/11/10 02:13:02;;;;;;;45.63;26.33;;;;;;;3.68;90.52;99016.38;2222201;80;20952;-81
2022/11/10 02:16:02;;;;;;;42.30;26.30;;;;;;;3.69;90.26;99018.55;2222094;80;21003;-81
2022/11/10 02:19:03;;;;;;;48.83;28.43;;;;;;;3.67;90.14;99017.20;2221950;80;20976;-81
2022/11/10 02:22:03;;;;;;;47.40;28.47;;;;;;;3.65;90.08;99024.41;2221891;80;20885;-81
2022/11/10 02:25:04;;;;;;;45.90;27.37;;;;;;;3.65;90.21;99030.45;2221829;80;20948;-80
2022/11/10 02:28:04;;;;;;;44.47;28.30;;;;;;;3.65;90.19;99025.28;2221999;80;20893;-80
2022/11/10 02:31:05;;;;;;;42.57;26.47;;;;;;;3.67;90.04;99027.93;2222038;80;20924;-79
2022/11/10 02:34:05;;;;;;;41.73;26.70;;;;;;;3.70;89.98;99028.94;2221716;80;21264;-81
2022/11/10 02:37:05;;;;;;;43.83;28.27;;;;;;;3.75;90.19;99019.69;2221644;80;20933;-81
2022/11/10 02:40:06;;;;;;;53.03;27.70;;;;;;;3.82;90.07;99025.98;2221684;80;21000;-80
2022/11/10 02:43:06;;;;;;;48.97;27.37;;;;;;;3.89;90.50;99025.41;2221916;80;20956;-81
2022/11/10 02:46:07;;;;;;;47.13;28.10;;;;;;;4.00;90.87;99030.61;2221954;80;20925;-82
2022/11/10 02:49:07;;;;;;;45.43;28.10;;;;;;;4.11;91.06;99029.34;2221764;80;21303;-81
2022/11/10 02:52:07;;;;;;;45.13;27.30;;;;;;;4.21;91.41;99035.75;2221743;80;21003;-80
2022/11/10 02:55:08;;;;;;;48.30;25.87;;;;;;;4.34;91.82;99033.27;2221946;80;21022;-81
2022/11/10 02:58:08;;;;;;;47.93;28.67;;;;;;;4.46;91.99;99031.16;2221643;80;20975;-81
2022/11/10 03:01:09;;;;;;;60.73;29.90;;;;;;;4.58;92.33;99037.22;2221719;80;20912;-82
2022/11/10 03:04:09;;;;;;;44.23;28.27;;;;;;;4.70;92.94;99031.22;2221743;80;20892;-81
2022/11/10 03:07:09;;;;;;;49.90;29.27;;;;;;;4.93;93.66;99032.08;2221781;80;20956;-82
2022/11/10 03:10:10;;;;;;;52.97;31.37;;;;;;;5.14;94.90;99041.91;2221457;80;20992;-82
2022/11/10 03:13:10;;;;;;;57.13;32.27;;;;;;;5.36;96.35;99044.89;2221732;80;21395;-81
2022/11/10 03:16:11;;;;;;;56.37;33.27;;;;;;;5.60;97.06;99031.92;2221788;80;20960;-81
2022/11/10 03:19:14;;;;;;;58.07;33.17;;;;;;;5.79;97.18;99034.72;2221802;80;20937;-81
2022/11/10 03:22:14;;;;;;;64.23;35.20;;;;;;;5.98;97.67;99037.12;2221865;80;20976;-81
2022/11/10 03:25:18;;;;;;;55.40;31.57;;;;;;;6.23;98.49;99040.13;2222047;80;20932;-80
2022/11/10 03:28:18;;;;;;;52.37;31.13;;;;;;;6.39;97.49;99050.15;2221861;80;20952;-82
2022/11/10 03:31:19;;;;;;;55.47;33.13;;;;;;;6.52;98.45;99045.81;2221145;80;20940;-82
2022/11/10 03:34:19;;;;;;;60.07;32.97;;;;;;;6.66;97.98;99044.94;2222115;80;20956;-82
2022/11/10 03:37:20;;;;;;;120.07;37.03;;;;;;;6.81;98.06;99051.00;2222018;80;21351;-82
2022/11/10 03:40:20;;;;;;;93.27;35.37;;;;;;;6.92;97.87;99043.11;2222216;80;20994;-83
2022/11/10 03:43:20;;;;;;;60.40;34.13;;;;;;;7.03;97.80;99047.81;2221460;80;21306;-81
2022/11/10 03:46:21;;;;;;;56.67;33.03;;;;;;;7.13;97.75;99048.08;2222075;80;20940;-81
2022/11/10 03:49:23;;;;;;;111.57;37.40;;;;;;;7.15;97.48;99050.30;2222358;80;20932;-82
2022/11/10 03:52:24;;;;;;;58.07;32.47;;;;;;;7.19;97.20;99050.84;2222284;80;20944;-82
2022/11/10 03:55:24;;;;;;;71.23;33.87;;;;;;;7.20;97.06;99045.70;2222095;80;20968;-82
2022/11/10 03:58:24;;;;;;;60.50;35.73;;;;;;;7.24;96.80;99049.26;2222082;80;20929;-86
2022/11/10 04:01:25;;;;;;;61.10;35.83;;;;;;;7.29;97.06;99051.15;2222072;80;20964;-82
2022/11/10 04:11:03;;;;;;;55.27;33.23;;;;;;;7.59;97.09;99051.11;2221617;80;20992;-82
2022/11/10 04:17:22;;;;;;;53.50;32.43;;;;;;;7.71;96.86;99060.06;2221866;80;21003;-83
2022/11/10 04:20:22;;;;;;;55.30;33.90;;;;;;;7.78;96.87;99064.16;2221016;80;20975;-82
2022/11/10 04:23:26;;;;;;;55.57;33.17;;;;;;;7.86;96.77;99064.40;2221804;80;20944;-81
2022/11/10 04:26:29;;;;;;;54.53;33.27;;;;;;;7.92;96.80;99062.84;2221224;80;20983;-83
2022/11/10 04:29:29;;;;;;;52.57;32.80;;;;;;;7.99;96.57;99067.77;2221360;80;20952;-81
2022/11/10 04:32:30;;;;;;;51.17;33.43;;;;;;;8.04;96.62;99066.59;2221776;80;20948;-82
2022/11/10 04:35:30;;;;;;;54.83;31.83;;;;;;;8.10;96.50;99070.64;2221563;80;21027;-82
2022/11/10 04:38:31;;;;;;;54.30;33.23;;;;;;;8.15;96.46;99071.22;2221392;80;20955;-80
2022/11/10 04:41:31;;;;;;;57.97;32.97;;;;;;;8.20;96.37;99078.71;2219881;80;21394;-81
2022/11/10 04:44:32;;;;;;;54.70;33.97;;;;;;;8.23;96.14;99080.50;2221308;80;21320;-81
2022/11/10 04:47:32;;;;;;;55.93;32.67;;;;;;;8.27;96.17;99081.04;2218347;80;21034;-80
2022/11/10 04:50:32;;;;;;;54.83;32.90;;;;;;;8.33;95.95;99086.42;2218688;80;21011;-81
2022/11/10 04:53:33;;;;;;;60.20;34.00;;;;;;;8.34;95.80;99081.68;2218740;80;20991;-81
2022/11/10 04:56:33;;;;;;;54.77;31.93;;;;;;;8.38;95.74;99088.72;2218758;80;20987;-82
2022/11/10 04:59:34;;;;;;;57.60;33.60;;;;;;;8.42;95.74;99090.97;2217845;80;21681;-81
2022/11/10 05:02:35;;;;;;;53.90;33.87;;;;;;;8.46;95.45;99099.31;2218427;80;20960;-82
2022/11/10 05:05:34;;;;;;;59.47;34.17;;;;;;;8.46;95.16;99103.21;2218757;80;21039;-81
2022/11/10 05:08:35;;;;;;;51.47;30.90;;;;;;;8.45;95.35;99100.15;2219244;80;21020;-80
2022/11/10 05:11:35;;;;;;;52.10;31.37;;;;;;;8.46;95.27;99101.91;2208009;81;21047;-82
2022/11/10 05:14:36;;;;;;;52.63;31.20;;;;;;;8.49;95.37;99102.86;2208799;80;21049;-80
2022/11/10 05:17:36;;;;;;;52.27;32.73;;;;;;;8.55;95.36;99103.01;2207945;81;21666;-80
2022/11/10 05:20:36;;;;;;;54.37;32.50;;;;;;;8.57;95.22;99106.95;2208156;81;21015;-81
2022/11/10 05:23:37;;;;;;;50.70;31.67;;;;;;;8.58;95.11;99104.80;2208554;81;21032;-80
2022/11/10 05:26:37;;;;;;;50.27;31.83;;;;;;;8.58;94.92;99105.69;2208975;81;20961;-80
2022/11/10 05:29:38;;;;;;;54.60;30.13;;;;;;;8.63;95.27;99124.89;2209924;81;21003;-80
2022/11/10 05:32:38;;;;;;;47.67;29.93;;;;;;;8.64;94.88;99124.47;2208115;81;20964;-80
2022/11/10 05:35:38;;;;;;;49.70;31.60;;;;;;;8.63;94.83;99132.69;2207804;81;21031;-82
2022/11/10 05:38:39;;;;;;;56.73;32.67;;;;;;;8.65;94.88;99136.63;2208032;81;21446;-80
2022/11/10 05:41:39;;;;;;;52.10;30.83;;;;;;;8.70;95.06;99142.86;2209826;81;21415;-81
2022/11/10 05:44:40;;;;;;;51.47;31.90;;;;;;;8.74;94.97;99148.59;2208631;81;20991;-80
2022/11/10 05:47:40;;;;;;;53.03;31.70;;;;;;;8.73;94.77;99152.47;2209781;81;20964;-81
2022/11/10 05:50:40;;;;;;;46.63;29.40;;;;;;;8.74;94.95;99156.41;2208764;81;21949;-82
2022/11/10 05:53:41;;;;;;;55.93;32.40;;;;;;;8.73;94.83;99170.27;2209125;81;21652;-84
2022/11/10 05:56:41;;;;;;;69.70;30.63;;;;;;;9.24;100.00;99167.10;2208675;81;21024;-84
2022/11/10 05:59:42;;;;;;;60.27;34.57;;;;;;;12.18;100.00;99164.28;2208741;80;21027;-86
2022/11/10 06:02:42;;;;;;;53.27;32.87;;;;;;;14.09;100.00;99165.64;2209055;81;20952;-83
2022/11/10 06:05:42;;;;;;;56.00;34.65;;;;;;;14.93;92.77;99174.12;2208922;81;22015;-85
2022/11/10 06:08:43;;;;;;;64.07;33.20;;;;;;;15.32;88.57;99182.84;2209243;81;20967;-85
2022/11/10 06:11:43;;;;;;;70.70;34.03;;;;;;;15.37;81.63;99190.73;2209578;80;21047;-85
2022/11/10 06:14:44;;;;;;;60.63;34.35;;;;;;;15.42;82.30;99200.80;2208197;81;20999;-82
2022/11/10 06:17:44;;;;;;;61.53;34.27;;;;;;;15.54;83.10;99211.30;2209117;81;21344;-78
2022/11/10 06:20:44;;;;;;;47.73;33.73;;;;;;;15.42;77.45;99213.95;2206824;81;20968;-79
2022/11/10 06:23:45;;;;;;;66.17;33.23;;;;;;;15.35;81.93;99214.84;2207644;81;21067;-84
2022/11/10 06:26:45;;;;;;;47.83;30.52;;;;;;;15.43;82.95;99220.53;2208721;80;20979;-83
2022/11/10 06:29:46;;;;;;;53.33;31.45;;;;;;;15.59;80.67;99230.17;2208115;81;21446;-82
2022/11/10 06:32:46;;;;;;;43.52;29.27;;;;;;;15.90;79.11;99230.13;2208398;81;21399;-83
2022/11/10 06:35:47;;;;;;;44.40;29.48;;;;;;;16.19;79.57;99231.32;2207744;81;20996;-81
2022/11/10 06:38:47;;;;;;;49.55;29.65;;;;;;;16.35;79.15;99238.27;2207419;81;20980;-84
2022/11/10 06:41:48;;;;;;;51.98;31.10;;;;;;;16.31;79.23;99243.11;2208351;81;21055;-83
2022/11/10 06:44:48;;;;;;;48.55;29.92;;;;;;;16.32;76.40;99250.13;2209231;81;20983;-84
2022/11/10 06:47:48;;;;;;;42.23;29.48;;;;;;;16.37;75.20;99252.30;2209172;81;21031;-84
2022/11/10 06:50:49;;;;;;;45.78;30.88;;;;;;;16.31;72.89;99263.31;2209682;81;20995;-85
2022/11/10 06:53:49;;;;;;;43.75;30.92;;;;;;;16.00;74.18;99265.19;2209191;81;20987;-83
2022/11/10 06:56:49;;;;;;;50.55;31.50;;;;;;;16.08;75.65;99271.31;2209395;81;21027;-83
2022/11/10 06:59:50;;;;;;;53.95;33.25;;;;;;;16.00;71.98;99272.65;2209513;81;20992;-81
2022/11/10 07:02:50;;;;;;;52.43;32.95;;;;;;;15.60;71.54;99278.41;2209930;81;21136;-82
2022/11/10 07:05:51;;;;;;;48.68;31.95;;;;;;;15.23;73.41;99282.36;2208755;81;21332;-84
2022/11/10 07:08:51;;;;;;;47.50;30.88;;;;;;;15.13;73.60;99285.86;2208431;81;21003;-83
2022/11/10 07:11:52;;;;;;;46.00;29.48;;;;;;;14.90;74.47;99283.20;2208606;80;21965;-81
2022/11/10 07:14:52;;;;;;;59.35;31.82;;;;;;;14.81;74.67;99289.77;2208811;81;21035;-84
2022/11/10 07:17:52;;;;;;;55.63;34.20;;;;;;;14.20;73.97;99288.62;2208315;81;20944;-83
2022/11/10 07:20:53;;;;;;;64.60;38.73;;;;;;;13.73;76.61;99296.22;2208449;81;21390;-84
2022/11/10 07:23:53;;;;;;;64.53;36.48;;;;;;;14.40;79.27;99293.52;2208471;81;20960;-83
2022/11/10 07:26:54;;;;;;;55.38;33.70;;;;;;;14.89;75.10;99301.60;2209229;81;21005;-82
2022/11/10 07:29:54;;;;;;;56.25;34.70;;;;;;;14.15;75.31;99304.80;2209367;81;21408;-82
2022/11/10 07:32:55;;;;;;;63.52;33.65;;;;;;;14.23;77.54;99308.34;2209293;81;20995;-84
2022/11/10 07:35:55;;;;;;;56.42;33.73;;;;;;;13.70;73.27;99311.08;2208933;81;20976;-84
2022/11/10 07:38:55;;;;;;;55.35;32.78;;;;;;;12.82;74.22;99321.17;2209155;81;20999;-81
2022/11/10 07:41:56;;;;;;;47.20;30.40;;;;;;;12.19;75.91;99324.80;2209857;80;20996;-83
2022/11/10 07:44:56;;;;;;;61.02;32.45;;;;;;;11.74;77.54;99329.34;2208404;81;21010;-84
2022/11/10 07:47:57;;;;;;;54.95;32.38;;;;;;;11.30;79.49;99327.78;2209155;81;20950;-83
2022/11/10 07:50:57;;;;;;;61.08;31.95;;;;;;;10.99;80.74;99330.25;2208861;80;21431;-83
2022/11/10 07:53:58;;;;;;;62.80;33.08;;;;;;;10.73;81.92;99337.19;2208217;81;21423;-83
2022/11/10 07:56:58;;;;;;;54.30;30.40;;;;;;;10.49;83.24;99339.33;2209204;81;21019;-84
2022/11/10 07:59:58;;;;;;;48.75;29.90;;;;;;;10.34;85.93;99342.89;2209588;81;20972;-84
2022/11/10 08:02:59;;;;;;;99.07;34.43;;;;;;;10.21;85.96;99351.77;2209781;81;21019;-84
2022/11/10 08:05:59;;;;;;;82.45;36.05;;;;;;;10.09;88.23;99359.30;2210134;81;21008;-84
2022/11/10 08:09:00;;;;;;;57.83;34.27;;;;;;;9.96;88.70;99364.22;2210538;81;20975;-83
2022/11/10 08:19:04;;;;;;;60.47;36.23;;;;;;;9.80;90.66;99368.20;2205712;80;21388;-83
2022/11/10 08:22:04;;;;;;;61.80;36.43;;;;;;;9.76;90.71;99375.48;2208620;81;21308;-83
2022/11/10 08:25:05;;;;;;;90.53;41.80;;;;;;;9.75;91.18;99376.34;2208182;81;20979;-84
2022/11/10 08:28:05;;;;;;;78.17;40.77;;;;;;;9.75;91.83;99378.94;2207554;81;20944;-78
2022/11/10 08:31:06;;;;;;;52.37;32.00;;;;;;;9.77;92.48;99374.64;2203480;81;20971;-83
2022/11/10 08:34:06;;;;;;;51.17;29.77;;;;;;;9.80;92.32;99379.51;2207606;81;20933;-83
2022/11/10 08:37:06;;;;;;;45.87;29.13;;;;;;;9.86;93.67;99391.38;2207472;81;22155;-84
2022/11/10 08:40:07;;;;;;;48.77;29.70;;;;;;;9.86;93.77;99388.78;2207420;80;20972;-83
2022/11/10 08:43:07;;;;;;;49.70;30.67;;;;;;;9.83;93.46;99393.04;2207338;81;21083;-83
2022/11/10 08:46:08;;;;;;;54.57;30.57;;;;;;;9.85;93.44;99403.08;2207590;81;21400;-81
2022/11/10 08:49:08;;;;;;;50.70;30.23;;;;;;;9.87;94.40;99408.79;2208761;81;21012;-81
2022/11/10 08:52:10;;;;;;;61.60;36.60;;;;;;;9.87;94.94;99410.52;2207900;81;20928;-81
2022/11/10 08:55:09;;;;;;;59.90;34.33;;;;;;;10.74;100.00;99406.84;2208734;81;20991;-81
2022/11/10 08:58:09;;;;;;;46.70;29.60;;;;;;;12.17;99.01;99415.50;2207928;81;21303;-80
2022/11/10 09:01:10;;;;;;;45.95;28.42;;;;;;;12.86;98.45;99414.23;2207339;81;21327;-80
2022/11/10 09:04:10;;;;;;;46.98;28.25;;;;;;;13.35;92.38;99419.63;2208724;80;20948;-80
2022/11/10 09:07:11;;;;;;;54.15;30.95;;;;;;;13.69;89.71;99416.88;2207801;81;21433;-82
2022/11/10 09:10:12;;;;;;;57.90;32.63;;;;;;;14.14;91.93;99422.06;2208656;81;20917;-81
2022/11/10 09:13:12;;;;;;;57.70;31.55;;;;;;;14.68;89.69;99427.21;2208060;81;21031;-81
2022/11/10 09:16:12;;;;;;;68.45;33.08;;;;;;;14.89;87.66;99435.66;2208306;81;20992;-82
2022/11/10 09:19:12;;;;;;;58.33;31.87;;;;;;;15.10;83.58;99431.78;2208410;81;21063;-82
2022/11/10 09:22:13;;;;;;;63.90;32.75;;;;;;;15.23;82.59;99438.83;2208476;81;21011;-81
2022/11/10 09:25:13;;;;;;;42.40;27.45;;;;;;;15.33;83.26;99438.85;2207983;81;20929;-82
2022/11/10 09:28:14;;;;;;;61.28;32.13;;;;;;;15.53;84.18;99443.27;2207672;81;20988;-80
2022/11/10 09:31:14;;;;;;;65.95;32.00;;;;;;;15.52;80.23;99444.59;2207343;81;20959;-81
2022/11/10 09:34:14;;;;;;;53.30;29.87;;;;;;;15.44;78.59;99448.95;2207201;81;20992;-82
2022/11/10 09:37:15;;;;;;;43.83;26.75;;;;;;;15.55;81.26;99454.68;2207854;80;21011;-83
2022/11/10 09:40:15;;;;;;;45.55;27.05;;;;;;;15.92;79.04;99443.80;2207470;80;20975;-84
2022/11/10 09:43:16;;;;;;;49.60;28.27;;;;;;;16.01;75.79;99453.89;2207468;81;21410;-82
2022/11/10 09:46:16;;;;;;;42.88;27.55;;;;;;;15.95;78.26;99447.31;2207853;81;21019;-81
2022/11/10 09:49:16;;;;;;;39.10;25.60;;;;;;;16.11;78.83;99456.96;2207690;80;20984;-82
2022/11/10 09:52:17;;;;;;;42.70;26.33;;;;;;;16.21;77.35;99454.31;2207849;81;21296;-82
2022/11/10 09:55:17;;;;;;;44.60;25.88;;;;;;;16.31;79.51;99461.77;2207183;81;21736;-81
2022/11/10 09:58:18;;;;;;;45.75;29.35;;;;;;;16.31;77.04;99467.03;2208656;80;21028;-83
2022/11/10 10:01:18;;;;;;;39.70;25.92;;;;;;;16.04;75.55;99467.94;2208700;81;20952;-81
2022/11/10 10:04:18;;;;;;;38.60;25.57;;;;;;;15.87;73.75;99465.74;2208693;81;21418;-82
2022/11/10 10:07:19;;;;;;;41.42;26.68;;;;;;;15.60;77.43;99476.69;2208478;81;21443;-78
2022/11/10 10:10:21;;;;;;;39.42;24.55;;;;;;;15.89;77.77;99479.78;2207024;81;21391;-83
2022/11/10 10:13:22;;;;;;;41.95;24.20;;;;;;;15.91;78.20;99473.64;2186786;81;21000;-83
2022/11/10 10:16:22;;;;;;;35.35;23.70;;;;;;;16.03;78.12;99479.34;2208746;81;20995;-84
2022/11/10 10:19:22;;;;;;;38.50;24.23;;;;;;;16.14;76.85;99486.80;2207316;80;21004;-80
2022/11/10 10:22:23;;;;;;;33.95;22.50;;;;;;;16.11;76.31;99485.92;2207307;80;21661;-83
2022/11/10 10:25:23;;;;;;;36.73;23.05;;;;;;;15.93;74.58;99482.41;2209302;81;21403;-83
2022/11/10 10:28:24;;;;;;;35.52;22.22;;;;;;;15.69;77.25;99495.99;2207716;81;20920;-82
2022/11/10 10:31:24;;;;;;;33.67;22.60;;;;;;;15.44;75.89;99498.50;2208354;81;20984;-80
2022/11/10 10:34:25;;;;;;;34.15;23.22;;;;;;;14.93;76.32;99500.51;2208530;81;21020;-84
2022/11/10 10:37:25;;;;;;;36.60;23.65;;;;;;;14.82;77.26;99498.27;2208710;81;20996;-85
2022/11/10 10:40:26;;;;;;;39.33;24.60;;;;;;;14.70;80.72;99502.11;2207789;81;20960;-84
2022/11/10 10:43:26;;;;;;;67.50;49.27;;;;;;;14.77;80.47;99501.30;2206339;81;21011;-84
2022/11/10 10:46:28;;;;;;;40.50;25.70;;;;;;;15.00;76.57;99503.61;2207851;81;21301;-84
2022/11/10 10:49:27;;;;;;;37.98;24.07;;;;;;;14.62;77.91;99513.45;2207399;81;20956;-82
2022/11/10 10:52:27;;;;;;;38.08;23.25;;;;;;;14.53;78.55;99513.39;2207112;81;20984;-85
2022/11/10 10:55:27;;;;;;;38.58;22.52;;;;;;;14.84;79.14;99505.28;2207584;81;21381;-82
2022/11/10 10:58:28;;;;;;;35.90;22.80;;;;;;;14.96;78.11;99506.66;2207718;81;20988;-82
2022/11/10 11:01:29;;;;;;;34.73;21.68;;;;;;;14.52;76.63;99516.89;2207642;81;21126;-83
2022/11/10 11:04:29;;;;;;;34.92;22.17;;;;;;;13.97;77.18;99526.05;2208253;81;20999;-83
2022/11/10 11:07:30;;;;;;;31.73;21.12;;;;;;;13.53;78.35;99521.21;2208336;81;21012;-84
2022/11/10 11:10:30;;;;;;;31.80;20.40;;;;;;;13.25;80.13;99524.39;2207401;80;21015;-83
2022/11/10 11:13:31;;;;;;;28.62;18.73;;;;;;;12.96;80.99;99518.72;2207215;81;21043;-85
2022/11/10 11:16:31;;;;;;;29.87;18.05;;;;;;;12.77;81.86;99525.45;2207980;81;21410;-83
2022/11/10 11:19:32;;;;;;;30.80;19.77;;;;;;;12.62;82.74;99535.28;2207243;80;21043;-81
2022/11/10 11:22:32;;;;;;;31.82;18.50;;;;;;;12.57;83.64;99534.34;2207587;81;20960;-83
2022/11/10 11:25:32;;;;;;;33.33;19.42;;;;;;;12.52;84.74;99532.51;2207961;81;21371;-84
2022/11/10 11:28:33;;;;;;;29.50;19.32;;;;;;;12.48;84.52;99535.52;2208402;81;20979;-82
2022/11/10 11:31:33;;;;;;;32.85;17.70;;;;;;;12.44;85.18;99544.17;2208820;81;21243;-82
2022/11/10 11:34:34;;;;;;;32.28;17.92;;;;;;;12.32;85.40;99549.22;2208411;81;21368;-82
2022/11/10 11:37:34;;;;;;;27.32;18.40;;;;;;;12.32;85.66;99542.25;2208733;81;20944;-84
2022/11/10 11:40:36;;;;;;;29.20;16.60;;;;;;;12.29;86.33;99544.81;2208242;81;21144;-83
2022/11/10 11:43:35;;;;;;;28.17;18.92;;;;;;;12.12;87.07;99542.32;2207768;81;21099;-83
2022/11/10 11:46:35;;;;;;;23.57;17.57;;;;;;;11.98;87.55;99542.09;2208628;81;21934;-85
2022/11/10 11:49:36;;;;;;;43.87;20.65;;;;;;;11.93;88.01;99545.05;2208255;81;20964;-84
2022/11/10 11:52:37;;;;;;;67.45;25.23;;;;;;;11.90;88.58;99546.30;2208480;80;20987;-83
2022/11/10 11:55:37;;;;;;;35.10;20.60;;;;;;;11.87;88.89;99551.91;2208958;81;21518;-84
2022/11/10 11:58:37;;;;;;;40.38;23.75;;;;;;;11.88;89.76;99560.21;2208245;81;20963;-84
2022/11/10 12:01:37;;;;;;;44.40;22.00;;;;;;;11.84;89.91;99560.58;2208851;81;20956;-83
2022/11/10 12:04:38;;;;;;;31.90;19.23;;;;;;;11.82;90.07;99555.75;2208497;81;20964;-83
2022/11/10 12:07:41;;;;;;;29.92;19.00;;;;;;;11.82;90.47;99558.80;2208805;81;20968;-80
2022/11/10 12:10:39;;;;;;;36.48;21.23;;;;;;;11.80;90.52;99557.03;2209391;81;21422;-84
2022/11/10 12:13:39;;;;;;;28.40;18.52;;;;;;;11.79;90.42;99557.00;2208730;81;21023;-83
2022/11/10 12:16:39;;;;;;;38.02;19.57;;;;;;;11.87;90.47;99564.98;2208891;81;21031;-83
2022/11/10 12:19:40;;;;;;;23.83;17.37;;;;;;;11.96;90.74;99557.30;2205735;81;21403;-82
2022/11/10 12:22:40;;;;;;;26.05;17.92;;;;;;;11.99;90.50;99560.86;2192082;80;21052;-81
2022/11/10 12:25:41;;;;;;;31.52;18.65;;;;;;;12.00;90.49;99563.92;2189473;81;21303;-83
2022/11/10 12:28:41;;;;;;;30.77;18.23;;;;;;;12.04;90.34;99560.51;2189046;81;21372;-82
2022/11/10 12:31:41;;;;;;;26.80;16.75;;;;;;;12.13;90.21;99561.97;2189132;81;20949;-82
2022/11/10 12:34:42;;;;;;;25.10;15.65;;;;;;;12.30;89.65;99570.56;2188695;81;21000;-82
2022/11/10 12:37:42;;;;;;;21.77;12.90;;;;;;;12.90;89.42;99573.66;2189659;81;21382;-81
2022/11/10 12:40:43;;;;;;;22.58;12.47;;;;;;;13.02;87.23;99572.56;2189073;81;20977;-81
2022/11/10 12:43:43;;;;;;;28.42;15.75;;;;;;;12.98;86.50;99579.89;2186539;81;21024;-82
2022/11/10 12:46:44;;;;;;;22.40;14.53;;;;;;;12.86;86.64;99583.65;2189011;81;20973;-81
2022/11/10 12:49:44;;;;;;;21.12;12.60;;;;;;;12.63;85.57;99588.12;2188285;81;21365;-81
2022/11/10 12:52:46;;;;;;;19.67;12.30;;;;;;;12.53;85.97;99592.77;2188321;81;20985;-82
2022/11/10 12:55:47;;;;;;;18.20;11.45;;;;;;;12.51;86.31;99592.28;2188231;81;21013;-81
2022/11/10 12:58:47;;;;;;;17.48;10.00;;;;;;;12.48;86.70;99594.43;2188148;81;21420;-81
2022/11/10 13:01:47;;;;;;;16.32;10.32;;;;;;;12.41;86.36;99594.75;2188357;81;20938;-82
2022/11/10 13:04:48;;;;;;;22.00;12.85;;;;;;;12.33;86.01;99598.98;2188600;81;20984;-81
2022/11/10 13:07:48;;;;;;;23.45;12.55;;;;;;;12.22;86.26;99604.89;2188705;81;20996;-79
2022/11/10 13:10:49;;;;;;;20.90;12.93;;;;;;;12.12;86.68;99602.09;2185399;81;21467;-83
2022/11/10 13:13:49;;;;;;;19.77;12.28;;;;;;;12.04;86.86;99608.92;2187986;81;21055;-83
2022/11/10 13:16:50;;;;;;;24.80;13.43;;;;;;;11.98;87.33;99611.42;2189156;81;20969;-83
2022/11/10 13:19:50;;;;;;;21.33;13.25;;;;;;;11.91;87.17;99615.20;2191437;81;21448;-83
2022/11/10 13:22:50;;;;;;;25.08;11.83;;;;;;;11.88;87.51;99613.84;2207573;81;20967;-82
2022/11/10 13:25:52;;;;;;;20.97;11.75;;;;;;;11.83;87.65;99620.72;2207501;80;20988;-82
2022/11/10 13:28:51;;;;;;;22.67;12.45;;;;;;;11.82;87.97;99629.42;2207459;81;21671;-84
2022/11/10 13:31:51;;;;;;;23.95;12.37;;;;;;;11.82;89.59;99636.84;2207043;81;20987;-84
2022/11/10 13:34:52;;;;;;;23.30;11.25;;;;;;;12.50;91.39;99631.11;2207762;81;21114;-84
2022/11/10 13:37:52;;;;;;;27.05;14.50;;;;;;;13.25;89.22;99634.50;2207418;81;21293;-85
2022/11/10 13:40:53;;;;;;;24.75;15.03;;;;;;;13.65;87.72;99629.33;2207658;81;20909;-83
2022/11/10 13:43:53;;;;;;;23.25;13.75;;;;;;;14.10;87.00;99635.98;2207371;81;21014;-86
2022/11/10 13:46:53;;;;;;;22.95;13.55;;;;;;;14.46;86.14;99631.55;2207038;81;20957;-82
2022/11/10 13:49:54;;;;;;;23.02;12.73;;;;;;;14.75;84.12;99634.01;2207940;80;20956;-84
2022/11/10 13:52:55;;;;;;;20.95;11.53;;;;;;;14.84;83.13;99639.33;2208081;81;20909;-85
2022/11/10 13:55:55;;;;;;;17.92;10.18;;;;;;;14.52;80.42;99656.55;2207595;81;21601;-84
2022/11/10 13:58:55;;;;;;;17.87;10.60;;;;;;;13.94;81.78;99652.00;2207628;81;20956;-83
2022/11/10 14:01:56;;;;;;;14.73;9.65;;;;;;;14.19;84.45;99668.47;2207432;80;21019;-85
2022/11/10 14:04:56;;;;;;;21.17;11.88;;;;;;;14.65;83.56;99663.67;2207399;81;21059;-81
2022/11/10 14:07:56;;;;;;;25.70;13.03;;;;;;;14.88;81.94;99669.15;2206931;81;20972;-85
2022/11/10 14:10:57;;;;;;;22.90;12.75;;;;;;;15.01;81.96;99668.37;2206821;81;20999;-83
2022/11/10 14:13:57;;;;;;;22.22;13.95;;;;;;;15.23;79.57;99673.34;2206439;81;21028;-83